Time;durP1;ratioP1;P1;durP2;ratioP2;P2;SDS_P1;SDS_P2;PMS_P1;PMS_P2;Temp;Humidity;BMP_temperature;BMP_pressure;BME280_temperature;BME280_humidity;BME280_pressure;Samples;Min_cycle;Max_cycle;Signal;HPM_P1;HPM_P2
2023/05/22 00:01:32;;;;;;;10.57;4.00;;;;;;;17.98;82.11;99375.41;5092933;28;20118;-82
2023/05/22 00:03:58;;;;;;;6.05;2.60;;;;;;;17.91;81.95;99359.78;5090121;28;20055;-82
2023/05/22 00:06:23;;;;;;;9.27;3.22;;;;;;;17.80;82.47;99365.63;5091727;28;20093;-82
2023/05/22 00:08:49;;;;;;;4.43;2.65;;;;;;;17.68;82.71;99349.28;5110329;28;20078;-82
2023/05/22 00:11:15;;;;;;;4.07;2.40;;;;;;;17.72;83.05;99364.19;5110324;28;20465;-82
2023/05/22 00:13:40;;;;;;;6.25;2.97;;;;;;;17.64;83.50;99353.06;5110497;28;20058;-83
2023/05/22 00:16:06;;;;;;;4.22;2.78;;;;;;;17.51;83.52;99344.78;5110124;28;20454;-83
2023/05/22 00:18:31;;;;;;;4.22;3.00;;;;;;;17.67;83.27;99368.91;5092871;28;20043;-83
2023/05/22 00:20:57;;;;;;;18.08;4.15;;;;;;;17.63;83.61;99362.00;5089899;28;20020;-82
2023/05/22 00:23:23;;;;;;;5.15;2.90;;;;;;;17.65;83.17;99354.78;5090147;28;20092;-82
2023/05/22 00:25:49;;;;;;;6.45;3.03;;;;;;;17.62;84.15;99378.06;5090042;28;20028;-83
2023/05/22 00:28:15;;;;;;;5.05;2.55;;;;;;;17.44;84.43;99359.38;5090766;28;20034;-83
2023/05/22 00:30:40;;;;;;;4.10;2.75;;;;;;;17.39;85.72;99384.50;5089845;28;20062;-82
2023/05/22 00:33:06;;;;;;;7.28;4.28;;;;;;;17.31;84.75;99345.75;5089915;28;20089;-82
2023/05/22 00:35:32;;;;;;;7.95;2.88;;;;;;;17.44;84.89;99367.38;5097463;28;20058;-84
2023/05/22 00:37:57;;;;;;;9.55;4.05;;;;;;;17.29;86.38;99371.63;5108342;28;20032;-83
2023/05/22 00:40:23;;;;;;;3.90;2.58;;;;;;;17.22;87.61;99383.50;5110994;28;20034;-82
2023/05/22 00:42:48;;;;;;;9.68;5.38;;;;;;;17.18;86.87;99349.97;5114391;27;20031;-83
2023/05/22 00:45:14;;;;;;;6.82;3.38;;;;;;;17.30;84.81;99351.16;5113748;28;20019;-83
2023/05/22 00:47:40;;;;;;;11.57;2.53;;;;;;;17.28;85.32;99377.03;5114005;28;20035;-82
2023/05/22 00:50:06;;;;;;;3.72;2.40;;;;;;;17.26;85.73;99357.59;5111990;28;20092;-82
2023/05/22 00:52:38;;;;;;;4.13;2.47;;;;;;;17.31;85.63;99360.88;5114044;28;20047;-82
2023/05/22 00:55:05;;;;;;;4.45;2.85;;;;;;;17.47;85.07;99393.00;5108912;28;20070;-82
2023/05/22 00:57:32;;;;;;;4.93;3.15;;;;;;;17.36;85.21;99353.53;5102603;28;20039;-82
2023/05/22 00:59:59;;;;;;;4.53;2.65;;;;;;;17.67;84.23;99381.38;5111342;28;20035;-83
2023/05/22 01:02:24;;;;;;;6.30;3.72;;;;;;;17.37;84.28;99333.94;5112753;28;20032;-83
2023/05/22 01:04:50;;;;;;;3.40;2.53;;;;;;;17.38;84.17;99335.69;5113850;27;20416;-83
2023/05/22 01:07:20;;;;;;;7.50;4.57;;;;;;;17.65;84.26;99367.25;5097812;28;20035;-83
2023/05/22 01:09:45;;;;;;;6.15;4.05;;;;;;;17.74;83.21;99360.59;5093682;28;20028;-84
2023/05/22 01:12:48;;;;;;;6.93;4.00;;;;;;;17.67;83.78;99382.25;5093475;28;20024;-83
2023/05/22 01:15:38;;;;;;;10.02;3.65;;;;;;;17.57;83.89;99367.63;5093051;28;20089;-84
2023/05/22 01:18:28;;;;;;;5.72;3.30;;;;;;;17.60;82.52;99355.97;5092804;28;20325;-83
2023/05/22 01:21:21;;;;;;;5.15;2.67;;;;;;;17.45;84.28;99363.75;5094396;28;20038;-82
2023/05/22 01:23:46;;;;;;;5.40;2.80;;;;;;;17.56;85.05;99384.56;5050672;28;20047;-83
2023/05/22 01:26:40;;;;;;;4.63;2.80;;;;;;;17.71;83.69;99378.47;5050681;28;20116;-82
2023/05/22 01:29:36;;;;;;;5.50;3.10;;;;;;;17.64;83.82;99378.84;4991131;28;20050;-82
2023/05/22 01:32:04;;;;;;;9.70;3.40;;;;;;;17.47;84.47;99361.88;5000070;28;20034;-82
2023/05/22 01:34:33;;;;;;;4.32;2.95;;;;;;;17.33;83.35;99322.56;5010388;28;20045;-82
2023/05/22 01:37:00;;;;;;;4.32;2.70;;;;;;;17.53;83.72;99369.59;5010504;28;20025;-82
2023/05/22 01:39:27;;;;;;;4.63;2.42;;;;;;;17.38;84.56;99358.78;5010221;28;20029;-82
2023/05/22 01:41:52;;;;;;;3.28;2.03;;;;;;;17.36;84.81;99365.06;5009756;28;20527;-83
2023/05/22 01:44:18;;;;;;;4.97;2.75;;;;;;;17.43;84.69;99370.97;5010647;28;20026;-83
2023/05/22 01:46:43;;;;;;;4.65;3.20;;;;;;;17.41;84.39;99345.31;5010310;28;20038;-82
2023/05/22 01:49:09;;;;;;;11.73;3.47;;;;;;;17.31;84.21;99326.25;5009956;28;20048;-85
2023/05/22 01:51:37;;;;;;;6.90;3.28;;;;;;;17.60;84.23;99378.16;5009771;28;20120;-82
2023/05/22 01:54:11;;;;;;;5.53;3.15;;;;;;;17.50;84.60;99372.41;5008666;28;20038;-82
2023/05/22 01:57:18;;;;;;;5.50;3.22;;;;;;;17.70;83.41;99376.75;5009426;28;20038;-82
2023/05/22 02:00:14;;;;;;;6.80;2.42;;;;;;;17.60;83.53;99375.47;4933160;28;20048;-82
2023/05/22 02:02:43;;;;;;;5.13;2.15;;;;;;;17.41;84.36;99359.53;4894827;29;20056;-82
2023/05/22 02:05:11;;;;;;;4.60;2.00;;;;;;;17.54;84.26;99379.28;4884057;28;20416;-82
2023/05/22 02:07:39;;;;;;;5.95;3.17;;;;;;;17.53;84.19;99380.25;4971101;28;20137;-82
2023/05/22 02:10:07;;;;;;;5.75;2.67;;;;;;;17.45;83.33;99347.75;4953729;28;20449;-82
2023/05/22 02:12:33;;;;;;;5.68;3.13;;;;;;;17.44;83.67;99363.81;4969537;28;20123;-82
2023/05/22 02:14:59;;;;;;;6.57;3.75;;;;;;;17.35;83.63;99347.34;4951177;29;20506;-82
2023/05/22 02:17:24;;;;;;;5.53;3.15;;;;;;;17.43;84.60;99370.13;4951535;29;20035;-82
2023/05/22 02:19:50;;;;;;;6.30;3.50;;;;;;;17.25;84.56;99347.84;4951272;29;20128;-82
2023/05/22 02:22:16;;;;;;;4.60;2.67;;;;;;;17.58;83.17;99384.47;4950750;28;20079;-83
2023/05/22 02:24:44;;;;;;;5.07;2.85;;;;;;;17.16;84.13;99338.50;4953782;28;20438;-82
2023/05/22 02:27:10;;;;;;;8.40;2.78;;;;;;;17.31;84.63;99360.88;4951101;29;20054;-82
2023/05/22 02:29:36;;;;;;;4.22;3.08;;;;;;;17.39;84.07;99360.53;4950973;29;20043;-83
2023/05/22 02:32:02;;;;;;;4.60;2.80;;;;;;;17.46;83.91;99375.28;4951252;29;20544;-83
2023/05/22 02:34:28;;;;;;;6.03;2.95;;;;;;;17.45;83.85;99377.06;4961232;28;20042;-82
2023/05/22 02:36:55;;;;;;;5.95;2.35;;;;;;;17.35;83.28;99367.81;5009223;28;20033;-82
2023/05/22 02:39:21;;;;;;;4.60;2.50;;;;;;;17.24;83.86;99349.66;5061614;28;20405;-83
2023/05/22 02:41:46;;;;;;;4.18;2.33;;;;;;;17.16;84.18;99336.72;5091881;28;20038;-83
2023/05/22 02:44:11;;;;;;;5.57;3.72;;;;;;;17.41;83.74;99370.19;5091346;28;20027;-83
2023/05/22 02:46:37;;;;;;;6.05;2.97;;;;;;;17.24;84.16;99348.78;5106073;28;20077;-83
2023/05/22 02:49:02;;;;;;;5.03;2.85;;;;;;;17.13;84.31;99326.19;5111461;28;20024;-83
2023/05/22 02:51:28;;;;;;;5.18;2.53;;;;;;;17.49;83.11;99361.81;5111086;28;20042;-83
2023/05/22 02:53:53;;;;;;;4.80;2.38;;;;;;;17.22;84.25;99338.19;5110180;28;20074;-83
2023/05/22 02:56:19;;;;;;;3.42;2.45;;;;;;;17.32;84.31;99359.97;5109858;28;20039;-84
2023/05/22 02:58:45;;;;;;;4.05;2.58;;;;;;;17.32;84.58;99365.28;5111198;28;20511;-83
2023/05/22 03:01:10;;;;;;;3.38;2.40;;;;;;;17.24;84.26;99355.00;5111758;28;20019;-83
2023/05/22 03:03:36;;;;;;;2.38;1.60;;;;;;;17.32;83.89;99368.81;5110250;27;20366;-82
2023/05/22 03:06:02;;;;;;;3.15;2.13;;;;;;;17.01;83.97;99332.09;5097495;28;20495;-82
2023/05/22 03:08:28;;;;;;;3.67;2.20;;;;;;;17.20;83.47;99355.22;5091907;28;20489;-83
2023/05/22 03:10:58;;;;;;;3.55;2.20;;;;;;;17.21;83.51;99349.81;5089291;28;20034;-81
2023/05/22 03:13:24;;;;;;;3.28;2.05;;;;;;;17.28;83.21;99361.88;5090466;28;20032;-81
2023/05/22 03:15:50;;;;;;;4.28;2.20;;;;;;;17.32;83.01;99357.31;5090867;28;20042;-82
2023/05/22 03:18:16;;;;;;;14.80;2.63;;;;;;;17.16;83.61;99339.38;5091607;28;20031;-83
2023/05/22 03:20:41;;;;;;;5.38;2.72;;;;;;;17.42;83.20;99376.38;5090473;28;20035;-83
2023/05/22 03:23:07;;;;;;;8.40;2.28;;;;;;;17.23;83.79;99379.91;5090590;28;20036;-84
2023/05/22 03:25:32;;;;;;;3.10;1.90;;;;;;;17.11;83.84;99370.69;5090036;28;20121;-84
2023/05/22 03:27:58;;;;;;;3.60;2.28;;;;;;;17.32;82.73;99374.16;5090172;28;20039;-84
2023/05/22 03:30:23;;;;;;;4.07;2.13;;;;;;;17.13;82.73;99347.53;5103397;28;20036;-84
2023/05/22 03:32:49;;;;;;;3.65;2.10;;;;;;;17.33;80.83;99365.22;5090818;28;20074;-83
2023/05/22 03:35:18;;;;;;;3.88;2.55;;;;;;;17.35;81.12;99384.66;5110026;28;20464;-84
2023/05/22 03:37:47;;;;;;;5.10;2.55;;;;;;;17.29;81.12;99370.78;5105728;28;20081;-84
2023/05/22 03:40:12;;;;;;;2.90;2.05;;;;;;;17.40;80.43;99365.78;5089512;28;20074;-83
2023/05/22 03:42:38;;;;;;;11.23;2.35;;;;;;;17.55;80.00;99380.19;5088870;28;20043;-82
2023/05/22 03:45:03;;;;;;;4.38;3.38;;;;;;;17.58;78.83;99368.47;5089532;28;20036;-82
2023/05/22 03:47:29;;;;;;;4.65;2.40;;;;;;;17.47;78.54;99345.00;5089538;28;20027;-82
2023/05/22 03:49:54;;;;;;;3.25;2.08;;;;;;;17.45;79.06;99370.88;5089549;28;20027;-83
2023/05/22 03:52:21;;;;;;;3.63;1.83;;;;;;;17.49;78.95;99356.47;5089691;28;20119;-83
2023/05/22 03:54:46;;;;;;;4.90;2.63;;;;;;;17.55;78.97;99380.19;5093464;28;20098;-84
2023/05/22 03:57:12;;;;;;;3.83;2.38;;;;;;;17.28;80.31;99366.38;5109776;28;20230;-84
2023/05/22 03:59:38;;;;;;;4.22;2.40;;;;;;;17.51;79.76;99384.78;5107812;28;20043;-85
2023/05/22 04:02:04;;;;;;;6.75;3.13;;;;;;;17.61;79.42;99377.22;5102504;28;20421;-84
2023/05/22 04:04:31;;;;;;;3.88;2.75;;;;;;;17.47;78.55;99351.22;5097807;28;20114;-85
2023/05/22 04:06:56;;;;;;;3.75;2.30;;;;;;;17.65;78.11;99362.78;5098485;28;20107;-86
2023/05/22 04:09:26;;;;;;;4.32;2.72;;;;;;;17.75;78.32;99384.53;5105410;28;20031;-83
2023/05/22 04:11:52;;;;;;;7.40;2.35;;;;;;;17.68;77.87;99359.09;5091244;28;20039;-83
2023/05/22 04:14:17;;;;;;;3.80;1.98;;;;;;;17.85;77.17;99358.25;5108299;28;20035;-86
2023/05/22 04:16:43;;;;;;;5.57;3.80;;;;;;;17.82;77.04;99347.75;5094666;28;20458;-85
2023/05/22 04:19:08;;;;;;;6.32;2.35;;;;;;;18.09;77.11;99372.19;5102528;28;20028;-85
2023/05/22 04:21:34;;;;;;;4.70;3.20;;;;;;;18.16;76.52;99364.72;5099649;28;20358;-84
2023/05/22 04:24:05;;;;;;;7.93;2.42;;;;;;;18.24;76.25;99366.06;5093744;28;20092;-85
2023/05/22 04:26:34;;;;;;;5.88;2.38;;;;;;;18.53;74.88;99390.38;5093861;28;20016;-85
2023/05/22 04:29:01;;;;;;;14.70;2.75;;;;;;;18.24;75.81;99336.72;5099007;28;20035;-87
2023/05/22 04:31:26;;;;;;;5.05;2.92;;;;;;;18.54;75.44;99393.91;5093806;28;20028;-84
2023/05/22 04:33:53;;;;;;;4.97;2.47;;;;;;;18.43;74.68;99365.97;5093612;28;20028;-83
2023/05/22 04:36:21;;;;;;;2.83;1.83;;;;;;;18.31;76.04;99355.94;5094446;28;20059;-83
2023/05/22 04:38:47;;;;;;;3.85;2.38;;;;;;;18.42;76.74;99366.91;5097609;28;20026;-87
2023/05/22 04:41:16;;;;;;;12.30;3.78;;;;;;;18.33;76.74;99364.72;5107325;28;20027;-88
2023/05/22 04:43:42;;;;;;;4.40;2.85;;;;;;;18.55;76.19;99366.25;5101744;28;20043;-87
2023/05/22 04:46:08;;;;;;;3.33;1.88;;;;;;;18.73;75.58;99389.31;5109256;28;20412;-85
2023/05/22 04:48:34;;;;;;;12.73;2.70;;;;;;;18.65;75.45;99378.19;5099892;28;20081;-85
2023/05/22 04:51:01;;;;;;;8.25;3.15;;;;;;;18.67;76.38;99359.41;5100860;28;20031;-85
2023/05/22 04:53:29;;;;;;;3.70;2.00;;;;;;;18.85;75.91;99369.13;5100992;28;20067;-88
2023/05/22 04:55:57;;;;;;;5.40;3.70;;;;;;;18.82;76.53;99379.09;5104155;27;20085;-87
2023/05/22 04:58:22;;;;;;;5.80;3.17;;;;;;;18.98;76.08;99387.16;5102090;28;20111;-86
2023/05/22 05:00:51;;;;;;;10.32;2.85;;;;;;;18.94;76.16;99383.81;5109768;28;20027;-87
2023/05/22 05:03:16;;;;;;;10.85;4.63;;;;;;;18.83;76.44;99368.31;5100390;28;20039;-85
2023/05/22 05:05:43;;;;;;;6.38;3.58;;;;;;;18.95;77.12;99398.88;5096734;28;20137;-83
2023/05/22 05:08:09;;;;;;;3.67;2.75;;;;;;;18.41;77.36;99337.59;5104059;28;20032;-84
2023/05/22 05:10:34;;;;;;;6.95;3.33;;;;;;;18.72;77.55;99398.28;5105105;28;20031;-86
2023/05/22 05:13:00;;;;;;;7.57;4.70;;;;;;;18.77;78.08;99403.38;5106972;28;20032;-86
2023/05/22 05:15:26;;;;;;;6.68;3.30;;;;;;;18.67;78.44;99375.44;5097854;28;20054;-85
2023/05/22 05:17:51;;;;;;;5.45;3.35;;;;;;;18.64;79.66;99372.91;5103911;28;20032;-86
2023/05/22 05:20:17;;;;;;;4.82;3.05;;;;;;;18.84;78.76;99382.53;5109871;28;20413;-85
2023/05/22 05:22:44;;;;;;;5.13;3.55;;;;;;;19.04;78.52;99411.75;5111975;28;20024;-89
2023/05/22 05:25:10;;;;;;;18.73;3.03;;;;;;;18.99;78.86;99405.78;5105492;28;20032;-85
2023/05/22 05:27:36;;;;;;;5.43;3.50;;;;;;;18.94;78.04;99386.47;5107072;28;20026;-85
2023/05/22 05:30:01;;;;;;;8.82;4.00;;;;;;;19.01;77.67;99400.34;5112404;28;20137;-84
2023/05/22 05:32:27;;;;;;;6.18;3.83;;;;;;;18.97;76.98;99415.72;5098131;28;20093;-84
2023/05/22 05:34:52;;;;;;;5.85;3.33;;;;;;;18.81;76.96;99393.38;5103058;28;20036;-85
2023/05/22 05:37:18;;;;;;;9.07;4.35;;;;;;;18.93;76.42;99409.66;5106101;28;20035;-85
2023/05/22 05:39:43;;;;;;;9.00;5.20;;;;;;;18.68;76.97;99412.75;5102037;28;20077;-86
2023/05/22 05:42:09;;;;;;;5.97;3.45;;;;;;;18.42;76.95;99385.59;5102584;28;20304;-85
2023/05/22 05:44:34;;;;;;;9.20;3.42;;;;;;;18.70;76.72;99396.63;5099738;28;20412;-85
2023/05/22 05:47:00;;;;;;;6.10;3.42;;;;;;;18.81;76.77;99398.72;5104436;28;20077;-88
2023/05/22 05:49:25;;;;;;;4.40;3.45;;;;;;;19.13;76.14;99392.53;5105328;28;20096;-87
2023/05/22 05:51:51;;;;;;;5.18;3.63;;;;;;;19.30;76.43;99398.75;5106991;28;20020;-86
2023/05/22 05:54:16;;;;;;;5.45;3.42;;;;;;;19.41;75.72;99431.09;5107608;28;20042;-87
2023/05/22 05:56:42;;;;;;;10.95;3.40;;;;;;;19.76;73.60;99412.19;5103330;28;20458;-87
2023/05/22 05:59:08;;;;;;;5.97;3.35;;;;;;;20.10;70.92;99420.97;5104553;28;20048;-87
2023/05/22 06:01:34;;;;;;;5.28;3.42;;;;;;;20.38;69.73;99443.44;5105776;28;20031;-87
2023/05/22 06:04:04;;;;;;;4.18;2.33;;;;;;;20.65;70.23;99446.31;5104850;28;20347;-88
2023/05/22 06:06:34;;;;;;;7.10;3.55;;;;;;;20.82;70.18;99447.97;5104978;28;20133;-87
2023/05/22 06:09:06;;;;;;;7.10;3.55;;;;;;;20.50;68.27;99421.28;5098875;28;20035;-87
2023/05/22 06:11:32;;;;;;;13.88;4.20;;;;;;;20.17;68.98;99408.97;5101899;28;20039;-87
2023/05/22 06:14:01;;;;;;;14.32;4.25;;;;;;;20.61;68.92;99422.47;5100130;28;20043;-86
2023/05/22 06:16:27;;;;;;;7.68;4.50;;;;;;;20.20;67.19;99415.94;5104834;28;20114;-86
2023/05/22 06:18:53;;;;;;;9.77;3.22;;;;;;;20.70;67.16;99449.59;5107900;28;20492;-85
2023/05/22 06:21:21;;;;;;;10.73;3.97;;;;;;;20.84;67.33;99434.47;5106095;28;20028;-82
2023/05/22 06:23:47;;;;;;;5.75;3.05;;;;;;;21.02;68.09;99445.88;5109206;28;20074;-82
2023/05/22 06:26:13;;;;;;;5.97;3.85;;;;;;;21.71;64.89;99424.53;5111435;28;20087;-82
2023/05/22 06:28:39;;;;;;;5.03;3.17;;;;;;;22.02;63.70;99460.97;5111129;28;20031;-82
2023/05/22 06:31:05;;;;;;;6.45;3.88;;;;;;;22.08;63.36;99457.03;5110388;28;20019;-82
2023/05/22 06:33:30;;;;;;;6.65;3.40;;;;;;;22.13;62.07;99438.75;5109074;28;20141;-82
2023/05/22 06:35:56;;;;;;;7.45;3.55;;;;;;;22.23;65.34;99461.38;5108829;28;20031;-82
2023/05/22 06:38:22;;;;;;;7.03;3.83;;;;;;;22.58;63.58;99446.53;5106298;28;20473;-82
2023/05/22 06:40:47;;;;;;;7.80;4.57;;;;;;;22.81;62.78;99435.03;5106654;28;20123;-81
2023/05/22 06:43:12;;;;;;;7.47;3.60;;;;;;;22.97;64.83;99440.22;5102802;28;20036;-82
2023/05/22 06:45:38;;;;;;;6.18;3.30;;;;;;;22.86;59.92;99450.84;5104609;28;20034;-83
2023/05/22 06:48:03;;;;;;;4.00;2.90;;;;;;;22.33;61.96;99432.06;5108607;28;20039;-82
2023/05/22 06:50:30;;;;;;;4.68;3.35;;;;;;;22.51;59.95;99444.25;5106285;28;21799;-83
2023/05/22 06:52:55;;;;;;;6.00;3.40;;;;;;;23.01;57.25;99456.97;5101159;28;20130;-82
2023/05/22 06:55:21;;;;;;;6.88;4.43;;;;;;;22.88;59.42;99457.00;5104847;28;20126;-82
2023/05/22 06:57:47;;;;;;;8.45;3.67;;;;;;;22.43;57.33;99405.44;5107524;28;20798;-83
2023/05/22 07:00:13;;;;;;;9.77;3.13;;;;;;;22.92;58.77;99455.78;5104969;28;20039;-82
2023/05/22 07:02:39;;;;;;;7.90;3.13;;;;;;;22.98;56.66;99449.97;5103239;28;20085;-83
2023/05/22 07:05:04;;;;;;;4.30;2.50;;;;;;;23.45;55.07;99449.41;5101958;28;20079;-83
2023/05/22 07:07:30;;;;;;;3.65;2.42;;;;;;;23.41;52.08;99425.41;5105360;28;20043;-83
2023/05/22 07:09:55;;;;;;;12.60;2.83;;;;;;;23.69;52.83;99453.00;5103277;28;20027;-83
2023/05/22 07:12:24;;;;;;;13.63;2.97;;;;;;;23.86;54.63;99445.56;5107021;28;20034;-82
2023/05/22 07:14:51;;;;;;;5.18;3.75;;;;;;;24.49;56.29;99440.81;5103510;28;20043;-82
2023/05/22 07:17:17;;;;;;;5.78;2.75;;;;;;;24.82;56.58;99441.88;5109956;28;20111;-83
2023/05/22 07:19:42;;;;;;;4.25;3.35;;;;;;;25.55;50.68;99455.94;5109110;28;20039;-83
2023/05/22 07:22:08;;;;;;;3.58;2.33;;;;;;;25.19;50.40;99458.75;5100873;28;20496;-83
2023/05/22 07:24:33;;;;;;;4.10;2.38;;;;;;;25.37;49.92;99452.88;5102528;28;20040;-83
2023/05/22 07:27:00;;;;;;;4.13;1.83;;;;;;;25.41;47.72;99454.34;5104401;28;20510;-84
2023/05/22 07:29:25;;;;;;;4.88;2.50;;;;;;;25.52;45.59;99429.19;5101022;28;20063;-84
2023/05/22 07:31:51;;;;;;;4.65;2.20;;;;;;;25.73;44.95;99451.72;5101556;27;20067;-84
2023/05/22 07:34:16;;;;;;;8.23;2.17;;;;;;;25.48;47.72;99441.19;5107012;28;20039;-84
2023/05/22 07:36:42;;;;;;;3.75;1.80;;;;;;;25.26;43.58;99431.25;5099258;28;20102;-84
2023/05/22 07:39:08;;;;;;;2.13;1.33;;;;;;;25.03;44.51;99437.50;5107495;28;20039;-85
2023/05/22 07:41:33;;;;;;;8.57;2.10;;;;;;;25.29;45.93;99444.53;5108380;28;20023;-84
2023/05/22 07:43:59;;;;;;;6.28;2.13;;;;;;;25.14;45.13;99428.53;5107961;28;20034;-84
2023/05/22 07:46:24;;;;;;;3.42;1.70;;;;;;;25.09;45.34;99443.41;5105293;28;20100;-84
2023/05/22 07:48:50;;;;;;;9.18;2.15;;;;;;;25.15;44.71;99445.63;5107446;28;20076;-84
2023/05/22 07:51:15;;;;;;;4.45;1.73;;;;;;;25.25;41.91;99451.97;5104765;28;20039;-84
2023/05/22 07:53:41;;;;;;;4.80;2.13;;;;;;;25.24;41.08;99439.47;5102876;28;20040;-84
2023/05/22 07:56:06;;;;;;;3.65;2.20;;;;;;;25.38;45.00;99423.06;5105280;28;20471;-84
2023/05/22 07:58:32;;;;;;;8.50;1.52;;;;;;;25.50;42.68;99448.22;5106855;28;20171;-84
2023/05/22 08:01:00;;;;;;;3.10;1.42;;;;;;;25.77;42.22;99446.06;5110080;28;20139;-84
2023/05/22 08:03:26;;;;;;;2.33;1.70;;;;;;;25.87;37.85;99422.69;5110180;28;20027;-84
2023/05/22 08:05:51;;;;;;;4.72;1.52;;;;;;;25.70;39.46;99413.28;5109251;28;20471;-85
2023/05/22 08:08:17;;;;;;;4.05;1.70;;;;;;;25.41;42.41;99411.16;5109919;28;20031;-84
2023/05/22 08:10:42;;;;;;;2.05;1.10;;;;;;;25.84;39.97;99445.44;5110116;28;20466;-82
2023/05/22 08:13:08;;;;;;;2.85;1.42;;;;;;;25.30;39.82;99438.13;5110489;28;20055;-87
2023/05/22 08:15:33;;;;;;;4.32;2.60;;;;;;;25.42;39.16;99452.50;5108551;28;20039;-86
2023/05/22 08:18:00;;;;;;;3.42;1.75;;;;;;;25.31;40.23;99447.97;5108373;28;20063;-87
2023/05/22 08:20:25;;;;;;;2.15;1.10;;;;;;;25.52;39.76;99454.34;5108879;28;20047;-83
2023/05/22 08:22:51;;;;;;;2.53;1.25;;;;;;;25.59;44.35;99416.03;5110175;28;20027;-84
2023/05/22 08:25:16;;;;;;;2.80;1.33;;;;;;;26.32;42.37;99444.19;5108863;28;20031;-84
2023/05/22 08:27:42;;;;;;;4.53;1.92;;;;;;;26.10;43.17;99391.06;5108885;28;20063;-84
2023/05/22 08:30:08;;;;;;;6.32;2.72;;;;;;;26.57;36.54;99386.16;5104196;28;20032;-85
2023/05/22 08:32:33;;;;;;;3.00;1.42;;;;;;;27.09;38.73;99415.06;5095921;28;20027;-85
2023/05/22 08:35:00;;;;;;;3.03;1.75;;;;;;;27.42;38.58;99408.53;5100207;28;20414;-86
2023/05/22 08:37:25;;;;;;;2.60;1.80;;;;;;;26.96;40.49;99445.06;5089206;28;20032;-86
2023/05/22 08:39:51;;;;;;;3.80;1.77;;;;;;;26.83;42.59;99417.34;5088637;28;20039;-86
2023/05/22 08:42:16;;;;;;;9.18;1.73;;;;;;;27.48;36.87;99415.22;5088873;28;20020;-86
2023/05/22 08:44:42;;;;;;;4.18;1.75;;;;;;;27.28;43.37;99423.28;5088869;28;20449;-84
2023/05/22 08:47:12;;;;;;;4.35;1.63;;;;;;;27.43;38.08;99428.34;5088849;28;20024;-83
2023/05/22 08:49:39;;;;;;;9.38;1.60;;;;;;;27.23;37.67;99433.63;5088517;28;20036;-87
2023/05/22 08:52:20;;;;;;;4.32;1.50;;;;;;;26.98;36.97;99416.88;5098028;28;20463;-87
2023/05/22 08:54:51;;;;;;;5.72;2.00;;;;;;;27.38;36.42;99446.84;5089704;28;20032;-86
2023/05/22 08:57:19;;;;;;;5.35;1.80;;;;;;;26.74;39.56;99414.47;5091451;28;20036;-86
2023/05/22 08:59:46;;;;;;;3.20;1.60;;;;;;;26.96;38.15;99418.84;5096215;28;20031;-85
2023/05/22 09:02:13;;;;;;;4.00;2.35;;;;;;;27.40;40.69;99402.38;5092423;28;20044;-85
2023/05/22 09:04:42;;;;;;;4.20;2.30;;;;;;;27.30;37.90;99409.59;5094009;28;20036;-84
2023/05/22 09:07:07;;;;;;;2.92;1.38;;;;;;;26.96;39.54;99415.31;5112976;28;20023;-84
2023/05/22 09:09:39;;;;;;;3.03;1.73;;;;;;;27.25;38.21;99420.84;5107463;28;20042;-84
2023/05/22 09:12:08;;;;;;;2.75;1.52;;;;;;;26.87;38.27;99413.41;5093868;28;20040;-84
2023/05/22 09:14:40;;;;;;;4.10;1.38;;;;;;;27.15;37.89;99418.06;5092265;28;20084;-85
2023/05/22 09:17:08;;;;;;;6.75;1.63;;;;;;;27.78;39.08;99435.13;5093095;28;20039;-86
2023/05/22 09:19:34;;;;;;;6.15;2.17;;;;;;;27.55;38.28;99404.72;5092762;28;20050;-85
2023/05/22 09:22:03;;;;;;;3.72;1.83;;;;;;;26.88;38.33;99415.97;5092854;28;20028;-84
2023/05/22 09:24:29;;;;;;;4.40;1.52;;;;;;;26.39;39.61;99417.50;5093041;28;20031;-83
2023/05/22 09:26:54;;;;;;;3.47;1.70;;;;;;;26.26;39.92;99409.56;5092780;28;20039;-84
2023/05/22 09:29:21;;;;;;;3.50;1.30;;;;;;;26.57;41.50;99421.31;5092838;28;20035;-85
2023/05/22 09:31:46;;;;;;;2.95;2.03;;;;;;;26.66;39.96;99418.81;5092652;28;20035;-85
2023/05/22 09:34:16;;;;;;;14.60;2.13;;;;;;;27.27;38.40;99412.59;5092789;28;20024;-84
2023/05/22 09:36:42;;;;;;;4.90;1.40;;;;;;;27.72;36.61;99422.16;5092232;28;20538;-85
2023/05/22 09:39:08;;;;;;;5.63;1.85;;;;;;;27.85;37.48;99396.50;5092675;28;20066;-86
2023/05/22 09:41:36;;;;;;;3.17;1.65;;;;;;;27.33;34.40;99406.66;5092965;28;20031;-85
2023/05/22 09:44:11;;;;;;;3.13;1.83;;;;;;;26.63;38.09;99403.69;5090381;28;20393;-84
2023/05/22 09:46:44;;;;;;;;;;;;;;;26.92;35.92;99422.81;5093163;28;20036;-85
2023/05/22 09:49:10;;;;;;;2.20;1.33;;;;;;;26.37;38.09;99405.94;5092439;28;19979;-86
2023/05/22 09:51:39;;;;;;;2.28;1.42;;;;;;;26.19;40.19;99422.72;5092784;28;20051;-87
2023/05/22 09:54:07;;;;;;;3.35;1.95;;;;;;;26.00;39.46;99417.19;5092354;28;20020;-86
2023/05/22 09:56:35;;;;;;;4.07;2.50;;;;;;;25.50;39.58;99383.41;5092777;28;20034;-87
2023/05/22 09:59:03;;;;;;;2.72;1.63;;;;;;;26.01;40.42;99398.13;5092308;28;20062;-87
2023/05/22 10:01:30;;;;;;;5.10;1.88;;;;;;;26.38;39.41;99411.19;5092206;28;20119;-85
2023/05/22 10:03:56;;;;;;;3.05;1.35;;;;;;;26.30;41.16;99418.28;5091924;28;20122;-84
2023/05/22 10:06:25;;;;;;;2.45;1.60;;;;;;;26.27;39.96;99377.00;5092143;28;20478;-84
2023/05/22 10:09:00;;;;;;;3.20;1.90;;;;;;;25.98;39.67;99375.91;5092140;28;20036;-84
2023/05/22 10:11:28;;;;;;;5.60;2.17;;;;;;;26.00;38.69;99373.94;5092059;28;20040;-84
2023/05/22 10:13:57;;;;;;;4.13;2.13;;;;;;;26.09;37.04;99348.84;5091565;28;20028;-84
2023/05/22 10:16:24;;;;;;;2.28;1.33;;;;;;;26.29;38.31;99374.16;5091740;28;20493;-84
2023/05/22 10:18:52;;;;;;;8.55;2.00;;;;;;;26.92;37.05;99366.00;5091484;28;20035;-84
2023/05/22 10:21:19;;;;;;;7.32;2.38;;;;;;;27.17;37.71;99352.97;5091645;28;20032;-86
2023/05/22 10:23:45;;;;;;;3.20;1.58;;;;;;;27.21;37.17;99381.50;5091977;28;20073;-84
2023/05/22 10:26:11;;;;;;;2.58;1.83;;;;;;;27.34;39.22;99362.31;5091848;28;20040;-85
2023/05/22 10:28:43;;;;;;;3.10;2.00;;;;;;;27.39;37.69;99360.06;5091516;28;20024;-85
2023/05/22 10:31:41;;;;;;;2.63;1.52;;;;;;;27.28;35.82;99373.66;5092077;28;20032;-85
2023/05/22 10:34:11;;;;;;;2.25;1.45;;;;;;;26.98;35.93;99357.31;5092349;28;20039;-85
2023/05/22 10:36:46;;;;;;;2.13;1.42;;;;;;;27.47;34.50;99378.31;5092941;28;20066;-86
2023/05/22 10:39:14;;;;;;;3.00;1.33;;;;;;;27.21;35.52;99375.22;5099909;28;20032;-85
2023/05/22 10:41:40;;;;;;;2.65;1.60;;;;;;;27.28;34.69;99363.72;5099695;28;20032;-86
2023/05/22 10:44:06;;;;;;;3.40;1.85;;;;;;;26.89;36.78;99360.00;5102942;28;20049;-86
2023/05/22 10:46:35;;;;;;;3.10;1.35;;;;;;;26.90;35.20;99367.13;5103116;28;20492;-84
2023/05/22 10:49:01;;;;;;;4.38;1.35;;;;;;;27.31;34.92;99373.38;5109705;28;20031;-85
2023/05/22 10:51:26;;;;;;;6.30;1.40;;;;;;;27.87;35.22;99371.97;5098448;28;20475;-84
2023/05/22 10:54:01;;;;;;;3.80;1.35;;;;;;;27.72;36.83;99368.81;5108115;28;20031;-83
2023/05/22 10:56:34;;;;;;;6.15;1.98;;;;;;;27.77;34.84;99357.53;5110522;28;20038;-84
2023/05/22 10:59:03;;;;;;;2.55;1.20;;;;;;;27.61;36.89;99350.81;5102257;28;20094;-85
2023/05/22 11:01:29;;;;;;;1.75;1.27;;;;;;;27.45;36.21;99336.97;5107799;28;20035;-85
2023/05/22 11:03:57;;;;;;;3.03;1.88;;;;;;;27.76;33.88;99340.44;5099446;28;20031;-84
2023/05/22 11:06:32;;;;;;;3.17;1.85;;;;;;;27.63;33.35;99338.00;5099561;28;20042;-83
2023/05/22 11:08:58;;;;;;;2.42;1.40;;;;;;;27.38;35.12;99314.19;5105925;28;20027;-84
2023/05/22 11:11:25;;;;;;;12.52;1.58;;;;;;;27.81;32.32;99315.63;5090468;28;20031;-84
2023/05/22 11:13:51;;;;;;;5.00;2.05;;;;;;;28.07;30.50;99301.50;5102430;28;20027;-85
2023/05/22 11:16:18;;;;;;;1.85;1.27;;;;;;;27.57;30.63;99327.72;5104323;27;20080;-85
2023/05/22 11:18:43;;;;;;;1.65;1.38;;;;;;;27.15;30.04;99314.38;5098058;28;20066;-82
2023/05/22 11:21:10;;;;;;;2.70;0.90;;;;;;;26.90;32.01;99340.91;5101758;28;20063;-83
2023/05/22 11:23:36;;;;;;;13.90;2.00;;;;;;;26.99;28.91;99285.13;5108409;28;20034;-83
2023/05/22 11:26:19;;;;;;;2.58;0.98;;;;;;;27.25;29.42;99331.50;5103545;28;20118;-83
2023/05/22 11:28:53;;;;;;;1.77;1.40;;;;;;;26.86;30.66;99349.44;5102420;28;20036;-84
2023/05/22 11:31:21;;;;;;;1.95;1.50;;;;;;;26.56;32.15;99321.38;5105724;28;20066;-85
2023/05/22 11:33:47;;;;;;;6.43;1.77;;;;;;;26.40;33.36;99330.84;5089582;28;20515;-84
2023/05/22 11:36:13;;;;;;;2.75;1.67;;;;;;;26.69;32.06;99334.72;5105440;28;20031;-84